sensor_id;sensor_type;location;lat;lon;timestamp;noise_LAeq;noise_LA_min;noise_LA_max;noise_LA01;noise_LA95
67308;Laerm;57662;51.436;5.978;2023-06-19T00:00:06;45.12;40.87;50.92;;
67308;Laerm;57662;51.436;5.978;2023-06-19T00:00:22;40.14;35.83;52.29;;
67308;Laerm;57662;51.436;5.978;2023-06-19T00:00:32;37.11;35.90;38.93;;
67308;Laerm;57662;51.436;5.978;2023-06-19T00:00:43;37.07;36.06;38.28;;
67308;Laerm;57662;51.436;5.978;2023-06-19T00:00:53;36.86;35.39;38.22;;
67308;Laerm;57662;51.436;5.978;2023-06-19T00:01:04;36.81;35.40;38.07;;
67308;Laerm;57662;51.436;5.978;2023-06-19T00:01:14;37.27;35.96;39.39;;
67308;Laerm;57662;51.436;5.978;2023-06-19T00:01:25;36.83;35.51;37.90;;
67308;Laerm;57662;51.436;5.978;2023-06-19T00:01:35;37.21;35.85;38.77;;
67308;Laerm;57662;51.436;5.978;2023-06-19T00:01:46;37.17;35.61;38.44;;
67308;Laerm;57662;51.436;5.978;2023-06-19T00:01:56;36.87;35.55;38.13;;
67308;Laerm;57662;51.436;5.978;2023-06-19T00:02:07;37.05;35.18;46.37;;
67308;Laerm;57662;51.436;5.978;2023-06-19T00:02:18;36.75;35.49;40.10;;
67308;Laerm;57662;51.436;5.978;2023-06-19T00:02:28;36.42;35.07;37.81;;
67308;Laerm;57662;51.436;5.978;2023-06-19T00:02:39;36.64;35.56;38.09;;
67308;Laerm;57662;51.436;5.978;2023-06-19T00:02:50;36.68;35.05;38.11;;
67308;Laerm;57662;51.436;5.978;2023-06-19T00:03:00;36.79;35.56;37.95;;
67308;Laerm;57662;51.436;5.978;2023-06-19T00:03:10;36.91;35.66;38.59;;
67308;Laerm;57662;51.436;5.978;2023-06-19T00:03:21;37.38;35.52;38.69;;
67308;Laerm;57662;51.436;5.978;2023-06-19T00:03:31;36.73;35.66;37.74;;
67308;Laerm;57662;51.436;5.978;2023-06-19T00:03:44;36.95;35.40;38.64;;
67308;Laerm;57662;51.436;5.978;2023-06-19T00:03:54;36.97;35.69;38.27;;
67308;Laerm;57662;51.436;5.978;2023-06-19T00:04:05;36.76;35.39;37.72;;
67308;Laerm;57662;51.436;5.978;2023-06-19T00:04:15;37.56;36.04;39.01;;
67308;Laerm;57662;51.436;5.978;2023-06-19T00:04:25;37.34;35.60;39.26;;
67308;Laerm;57662;51.436;5.978;2023-06-19T00:04:36;36.85;35.38;38.26;;
67308;Laerm;57662;51.436;5.978;2023-06-19T00:04:47;37.36;35.81;42.82;;
67308;Laerm;57662;51.436;5.978;2023-06-19T00:04:57;36.78;35.68;38.07;;
67308;Laerm;57662;51.436;5.978;2023-06-19T00:05:08;36.88;35.68;37.96;;
67308;Laerm;57662;51.436;5.978;2023-06-19T00:05:19;37.52;36.02;39.54;;
67308;Laerm;57662;51.436;5.978;2023-06-19T00:05:32;37.98;36.27;39.62;;
67308;Laerm;57662;51.436;5.978;2023-06-19T00:05:42;36.89;35.33;38.10;;
67308;Laerm;57662;51.436;5.978;2023-06-19T00:05:52;37.58;36.12;39.10;;
67308;Laerm;57662;51.436;5.978;2023-06-19T00:06:05;37.39;35.94;38.63;;
67308;Laerm;57662;51.436;5.978;2023-06-19T00:06:15;37.19;35.97;39.07;;
67308;Laerm;57662;51.436;5.978;2023-06-19T00:06:26;37.17;36.01;38.56;;
67308;Laerm;57662;51.436;5.978;2023-06-19T00:06:36;37.32;36.23;38.44;;
67308;Laerm;57662;51.436;5.978;2023-06-19T00:06:47;37.20;35.53;38.42;;
67308;Laerm;57662;51.436;5.978;2023-06-19T00:06:59;36.93;35.81;37.92;;
67308;Laerm;57662;51.436;5.978;2023-06-19T00:07:09;36.81;35.43;38.04;;
67308;Laerm;57662;51.436;5.978;2023-06-19T00:07:20;38.87;35.79;41.12;;
67308;Laerm;57662;51.436;5.978;2023-06-19T00:07:32;40.47;38.13;43.89;;
67308;Laerm;57662;51.436;5.978;2023-06-19T00:07:42;37.87;36.56;39.72;;
67308;Laerm;57662;51.436;5.978;2023-06-19T00:07:52;37.97;36.79;39.18;;
67308;Laerm;57662;51.436;5.978;2023-06-19T00:08:04;37.28;35.96;38.48;;
67308;Laerm;57662;51.436;5.978;2023-06-19T00:08:15;37.49;36.22;38.68;;
67308;Laerm;57662;51.436;5.978;2023-06-19T00:08:26;37.32;36.29;38.92;;
67308;Laerm;57662;51.436;5.978;2023-06-19T00:08:36;38.26;36.21;40.23;;
67308;Laerm;57662;51.436;5.978;2023-06-19T00:08:46;37.79;35.89;39.67;;
67308;Laerm;57662;51.436;5.978;2023-06-19T00:08:57;37.69;36.05;39.19;;
67308;Laerm;57662;51.436;5.978;2023-06-19T00:09:07;37.02;35.79;38.38;;
67308;Laerm;57662;51.436;5.978;2023-06-19T00:09:19;37.32;36.04;38.73;;
67308;Laerm;57662;51.436;5.978;2023-06-19T00:09:29;37.23;35.75;38.74;;
67308;Laerm;57662;51.436;5.978;2023-06-19T00:09:40;37.25;36.10;38.47;;
67308;Laerm;57662;51.436;5.978;2023-06-19T00:09:50;37.36;36.24;38.81;;
67308;Laerm;57662;51.436;5.978;2023-06-19T00:10:01;37.77;36.18;39.56;;
67308;Laerm;57662;51.436;5.978;2023-06-19T00:10:12;36.90;35.43;38.51;;
67308;Laerm;57662;51.436;5.978;2023-06-19T00:10:23;37.73;35.94;44.68;;
67308;Laerm;57662;51.436;5.978;2023-06-19T00:10:34;37.55;36.00;39.27;;
67308;Laerm;57662;51.436;5.978;2023-06-19T00:10:44;37.58;36.24;39.02;;
67308;Laerm;57662;51.436;5.978;2023-06-19T00:10:55;37.20;35.70;38.46;;
67308;Laerm;57662;51.436;5.978;2023-06-19T00:11:05;36.82;35.20;38.44;;
67308;Laerm;57662;51.436;5.978;2023-06-19T00:11:15;36.98;35.40;38.08;;
67308;Laerm;57662;51.436;5.978;2023-06-19T00:11:26;37.01;35.99;38.59;;
67308;Laerm;57662;51.436;5.978;2023-06-19T00:11:36;37.71;35.99;39.14;;
67308;Laerm;57662;51.436;5.978;2023-06-19T00:11:47;37.38;35.60;39.11;;
67308;Laerm;57662;51.436;5.978;2023-06-19T00:11:57;37.60;36.20;39.61;;
67308;Laerm;57662;51.436;5.978;2023-06-19T00:12:09;37.89;35.74;40.77;;
67308;Laerm;57662;51.436;5.978;2023-06-19T00:12:21;37.78;36.56;39.37;;
67308;Laerm;57662;51.436;5.978;2023-06-19T00:12:32;37.65;36.51;38.91;;
67308;Laerm;57662;51.436;5.978;2023-06-19T00:12:42;37.47;35.86;38.84;;
67308;Laerm;57662;51.436;5.978;2023-06-19T00:12:53;37.06;36.04;38.19;;
67308;Laerm;57662;51.436;5.978;2023-06-19T00:13:04;37.18;35.59;47.71;;
67308;Laerm;57662;51.436;5.978;2023-06-19T00:13:14;36.68;35.27;38.04;;
67308;Laerm;57662;51.436;5.978;2023-06-19T00:13:24;36.95;35.75;38.11;;
67308;Laerm;57662;51.436;5.978;2023-06-19T00:13:35;36.91;35.25;38.10;;
67308;Laerm;57662;51.436;5.978;2023-06-19T00:13:45;37.07;35.44;38.44;;
67308;Laerm;57662;51.436;5.978;2023-06-19T00:13:56;37.23;35.93;38.38;;
67308;Laerm;57662;51.436;5.978;2023-06-19T00:14:07;37.80;36.55;39.17;;
67308;Laerm;57662;51.436;5.978;2023-06-19T00:14:17;37.38;35.90;38.65;;
67308;Laerm;57662;51.436;5.978;2023-06-19T00:14:28;36.73;35.35;38.08;;
67308;Laerm;57662;51.436;5.978;2023-06-19T00:14:39;37.30;35.97;38.76;;
67308;Laerm;57662;51.436;5.978;2023-06-19T00:14:49;37.60;36.19;38.99;;
67308;Laerm;57662;51.436;5.978;2023-06-19T00:15:00;37.15;35.67;38.46;;
67308;Laerm;57662;51.436;5.978;2023-06-19T00:15:10;36.84;35.58;38.19;;
67308;Laerm;57662;51.436;5.978;2023-06-19T00:15:21;36.84;35.73;38.05;;
67308;Laerm;57662;51.436;5.978;2023-06-19T00:15:31;37.07;36.00;38.71;;
67308;Laerm;57662;51.436;5.978;2023-06-19T00:15:42;39.99;36.44;44.37;;
67308;Laerm;57662;51.436;5.978;2023-06-19T00:15:52;38.84;36.22;42.92;;
67308;Laerm;57662;51.436;5.978;2023-06-19T00:16:02;37.36;35.57;38.74;;
67308;Laerm;57662;51.436;5.978;2023-06-19T00:16:13;37.13;35.46;38.73;;
67308;Laerm;57662;51.436;5.978;2023-06-19T00:16:24;37.58;36.20;39.87;;
67308;Laerm;57662;51.436;5.978;2023-06-19T00:16:35;38.16;36.47;40.54;;
67308;Laerm;57662;51.436;5.978;2023-06-19T00:16:45;39.88;37.08;44.90;;
67308;Laerm;57662;51.436;5.978;2023-06-19T00:16:56;48.70;39.33;60.43;;
67308;Laerm;57662;51.436;5.978;2023-06-19T00:17:06;61.29;50.54;71.10;;
67308;Laerm;57662;51.436;5.978;2023-06-19T00:17:17;57.23;43.53;64.83;;
67308;Laerm;57662;51.436;5.978;2023-06-19T00:17:28;41.12;36.33;46.01;;
67308;Laerm;57662;51.436;5.978;2023-06-19T00:17:39;37.47;36.02;40.59;;
67308;Laerm;57662;51.436;5.978;2023-06-19T00:17:49;41.59;35.82;49.97;;
67308;Laerm;57662;51.436;5.978;2023-06-19T00:18:00;43.02;38.07;47.43;;
67308;Laerm;57662;51.436;5.978;2023-06-19T00:18:10;41.72;38.53;46.01;;
67308;Laerm;57662;51.436;5.978;2023-06-19T00:18:20;39.93;37.73;43.54;;
67308;Laerm;57662;51.436;5.978;2023-06-19T00:18:31;38.89;36.02;46.26;;
67308;Laerm;57662;51.436;5.978;2023-06-19T00:18:50;36.74;35.45;38.17;;
67308;Laerm;57662;51.436;5.978;2023-06-19T00:19:02;36.80;34.78;38.53;;
67308;Laerm;57662;51.436;5.978;2023-06-19T00:19:13;39.05;36.83;41.76;;
67308;Laerm;57662;51.436;5.978;2023-06-19T00:19:24;38.61;36.59;41.00;;
67308;Laerm;57662;51.436;5.978;2023-06-19T00:19:34;37.83;35.72;39.27;;
67308;Laerm;57662;51.436;5.978;2023-06-19T00:19:47;37.71;36.13;39.49;;
67308;Laerm;57662;51.436;5.978;2023-06-19T00:19:58;37.02;35.67;38.91;;
67308;Laerm;57662;51.436;5.978;2023-06-19T00:20:09;37.44;36.19;39.05;;
67308;Laerm;57662;51.436;5.978;2023-06-19T00:20:20;36.96;35.18;38.48;;
67308;Laerm;57662;51.436;5.978;2023-06-19T00:20:30;36.64;35.05;38.10;;
67308;Laerm;57662;51.436;5.978;2023-06-19T00:20:41;37.00;35.62;38.47;;
67308;Laerm;57662;51.436;5.978;2023-06-19T00:20:52;36.85;35.29;38.27;;
67308;Laerm;57662;51.436;5.978;2023-06-19T00:21:04;36.97;35.25;38.38;;
67308;Laerm;57662;51.436;5.978;2023-06-19T00:21:15;38.45;35.70;56.03;;
67308;Laerm;57662;51.436;5.978;2023-06-19T00:21:26;36.94;35.64;38.47;;
67308;Laerm;57662;51.436;5.978;2023-06-19T00:21:37;37.19;35.60;38.91;;
67308;Laerm;57662;51.436;5.978;2023-06-19T00:21:47;37.06;35.94;38.32;;
67308;Laerm;57662;51.436;5.978;2023-06-19T00:21:58;37.17;35.73;38.80;;
67308;Laerm;57662;51.436;5.978;2023-06-19T00:22:10;37.15;35.70;38.49;;
67308;Laerm;57662;51.436;5.978;2023-06-19T00:22:20;36.84;35.59;38.14;;
67308;Laerm;57662;51.436;5.978;2023-06-19T00:22:31;36.76;35.26;39.51;;
67308;Laerm;57662;51.436;5.978;2023-06-19T00:22:41;36.45;35.40;37.61;;
67308;Laerm;57662;51.436;5.978;2023-06-19T00:22:52;36.33;35.28;37.46;;
67308;Laerm;57662;51.436;5.978;2023-06-19T00:23:02;36.16;35.10;37.32;;
67308;Laerm;57662;51.436;5.978;2023-06-19T00:23:13;36.90;35.52;38.59;;
67308;Laerm;57662;51.436;5.978;2023-06-19T00:23:26;36.97;35.22;38.30;;
67308;Laerm;57662;51.436;5.978;2023-06-19T00:23:37;36.63;35.64;37.85;;
67308;Laerm;57662;51.436;5.978;2023-06-19T00:23:47;37.40;35.89;39.44;;
67308;Laerm;57662;51.436;5.978;2023-06-19T00:23:57;37.10;35.48;47.05;;
67308;Laerm;57662;51.436;5.978;2023-06-19T00:24:08;37.12;35.44;39.05;;
67308;Laerm;57662;51.436;5.978;2023-06-19T00:24:19;36.87;35.42;38.06;;
67308;Laerm;57662;51.436;5.978;2023-06-19T00:24:29;36.64;35.56;38.21;;
67308;Laerm;57662;51.436;5.978;2023-06-19T00:24:39;36.92;35.38;38.40;;
67308;Laerm;57662;51.436;5.978;2023-06-19T00:24:50;37.04;35.78;38.77;;
67308;Laerm;57662;51.436;5.978;2023-06-19T00:25:02;36.93;35.57;38.17;;
67308;Laerm;57662;51.436;5.978;2023-06-19T00:25:12;36.47;35.13;37.70;;
67308;Laerm;57662;51.436;5.978;2023-06-19T00:25:23;36.95;35.96;38.18;;
67308;Laerm;57662;51.436;5.978;2023-06-19T00:25:34;36.95;35.84;38.51;;
67308;Laerm;57662;51.436;5.978;2023-06-19T00:25:44;36.92;35.67;38.37;;
67308;Laerm;57662;51.436;5.978;2023-06-19T00:25:55;36.82;35.44;38.52;;
67308;Laerm;57662;51.436;5.978;2023-06-19T00:26:06;36.91;35.59;38.05;;
67308;Laerm;57662;51.436;5.978;2023-06-19T00:26:17;36.89;35.39;38.15;;
67308;Laerm;57662;51.436;5.978;2023-06-19T00:26:27;36.98;35.60;38.20;;
67308;Laerm;57662;51.436;5.978;2023-06-19T00:26:38;37.18;35.49;42.01;;
67308;Laerm;57662;51.436;5.978;2023-06-19T00:26:50;36.65;35.45;38.12;;
67308;Laerm;57662;51.436;5.978;2023-06-19T00:27:01;36.96;35.60;38.65;;
67308;Laerm;57662;51.436;5.978;2023-06-19T00:27:14;37.66;36.16;39.18;;
67308;Laerm;57662;51.436;5.978;2023-06-19T00:27:25;37.67;36.50;39.13;;
67308;Laerm;57662;51.436;5.978;2023-06-19T00:27:36;37.66;36.14;39.27;;
67308;Laerm;57662;51.436;5.978;2023-06-19T00:27:47;37.28;35.78;38.72;;
67308;Laerm;57662;51.436;5.978;2023-06-19T00:27:57;37.40;36.02;38.64;;
67308;Laerm;57662;51.436;5.978;2023-06-19T00:28:08;37.47;36.29;38.99;;
67308;Laerm;57662;51.436;5.978;2023-06-19T00:28:21;37.15;35.40;38.67;;
67308;Laerm;57662;51.436;5.978;2023-06-19T00:28:32;37.05;35.63;38.24;;
67308;Laerm;57662;51.436;5.978;2023-06-19T00:28:42;36.98;35.95;38.21;;
67308;Laerm;57662;51.436;5.978;2023-06-19T00:28:56;37.04;35.33;38.76;;
67308;Laerm;57662;51.436;5.978;2023-06-19T00:29:06;37.24;35.62;38.92;;
67308;Laerm;57662;51.436;5.978;2023-06-19T00:29:17;37.07;35.68;38.28;;
67308;Laerm;57662;51.436;5.978;2023-06-19T00:29:28;37.33;35.86;40.67;;
67308;Laerm;57662;51.436;5.978;2023-06-19T00:29:39;36.90;35.29;38.22;;
67308;Laerm;57662;51.436;5.978;2023-06-19T00:29:52;37.24;35.83;38.57;;
67308;Laerm;57662;51.436;5.978;2023-06-19T00:30:04;37.58;36.12;39.01;;
67308;Laerm;57662;51.436;5.978;2023-06-19T00:30:15;37.21;35.33;38.73;;
67308;Laerm;57662;51.436;5.978;2023-06-19T00:30:25;37.06;35.44;39.20;;
67308;Laerm;57662;51.436;5.978;2023-06-19T00:30:36;36.62;35.47;37.92;;
67308;Laerm;57662;51.436;5.978;2023-06-19T00:30:46;36.62;34.98;38.11;;
67308;Laerm;57662;51.436;5.978;2023-06-19T00:30:57;36.79;35.56;38.43;;
67308;Laerm;57662;51.436;5.978;2023-06-19T00:31:07;39.69;35.37;51.39;;
67308;Laerm;57662;51.436;5.978;2023-06-19T00:31:17;36.50;35.43;37.76;;
67308;Laerm;57662;51.436;5.978;2023-06-19T00:31:28;36.57;35.16;37.89;;
67308;Laerm;57662;51.436;5.978;2023-06-19T00:31:39;37.12;35.58;38.56;;
67308;Laerm;57662;51.436;5.978;2023-06-19T00:31:50;36.95;35.33;38.54;;
67308;Laerm;57662;51.436;5.978;2023-06-19T00:32:00;37.00;35.62;38.38;;
67308;Laerm;57662;51.436;5.978;2023-06-19T00:32:11;37.47;35.87;44.41;;
67308;Laerm;57662;51.436;5.978;2023-06-19T00:32:21;37.07;35.60;38.48;;
67308;Laerm;57662;51.436;5.978;2023-06-19T00:32:32;36.89;35.51;37.98;;
67308;Laerm;57662;51.436;5.978;2023-06-19T00:32:42;36.60;35.36;38.29;;
67308;Laerm;57662;51.436;5.978;2023-06-19T00:33:00;36.66;35.14;38.59;;
67308;Laerm;57662;51.436;5.978;2023-06-19T00:33:12;36.99;35.10;38.25;;
67308;Laerm;57662;51.436;5.978;2023-06-19T00:33:22;36.75;35.21;38.17;;
67308;Laerm;57662;51.436;5.978;2023-06-19T00:33:34;36.79;35.53;38.06;;
67308;Laerm;57662;51.436;5.978;2023-06-19T00:33:44;37.12;35.83;38.59;;
67308;Laerm;57662;51.436;5.978;2023-06-19T00:33:58;36.97;35.88;38.34;;
67308;Laerm;57662;51.436;5.978;2023-06-19T00:34:08;37.08;35.69;38.53;;
67308;Laerm;57662;51.436;5.978;2023-06-19T00:34:19;37.04;35.92;38.43;;
67308;Laerm;57662;51.436;5.978;2023-06-19T00:34:29;36.68;35.28;37.84;;
67308;Laerm;57662;51.436;5.978;2023-06-19T00:34:40;36.30;34.94;37.23;;
67308;Laerm;57662;51.436;5.978;2023-06-19T00:34:55;36.98;35.76;41.79;;
67308;Laerm;57662;51.436;5.978;2023-06-19T00:35:06;36.86;35.89;38.22;;
67308;Laerm;57662;51.436;5.978;2023-06-19T00:35:17;37.11;35.61;38.66;;
67308;Laerm;57662;51.436;5.978;2023-06-19T00:35:28;37.22;35.87;38.97;;
67308;Laerm;57662;51.436;5.978;2023-06-19T00:35:39;37.65;36.05;38.94;;
67308;Laerm;57662;51.436;5.978;2023-06-19T00:35:51;36.76;34.92;38.49;;
67308;Laerm;57662;51.436;5.978;2023-06-19T00:36:01;36.61;35.32;37.95;;
67308;Laerm;57662;51.436;5.978;2023-06-19T00:36:12;36.53;35.15;37.69;;
67308;Laerm;57662;51.436;5.978;2023-06-19T00:36:23;36.59;34.94;37.74;;
67308;Laerm;57662;51.436;5.978;2023-06-19T00:36:39;36.96;35.36;38.35;;
67308;Laerm;57662;51.436;5.978;2023-06-19T00:36:51;37.08;35.81;38.70;;
67308;Laerm;57662;51.436;5.978;2023-06-19T00:37:01;37.68;36.04;39.16;;
67308;Laerm;57662;51.436;5.978;2023-06-19T00:37:12;37.38;36.00;38.77;;
67308;Laerm;57662;51.436;5.978;2023-06-19T00:37:23;37.66;36.45;39.39;;
67308;Laerm;57662;51.436;5.978;2023-06-19T00:37:34;38.80;36.11;46.04;;
67308;Laerm;57662;51.436;5.978;2023-06-19T00:37:44;36.71;35.31;38.04;;
67308;Laerm;57662;51.436;5.978;2023-06-19T00:37:55;37.36;35.63;43.16;;
67308;Laerm;57662;51.436;5.978;2023-06-19T00:38:05;37.05;35.81;38.42;;
67308;Laerm;57662;51.436;5.978;2023-06-19T00:38:16;37.15;35.63;40.92;;
67308;Laerm;57662;51.436;5.978;2023-06-19T00:38:27;37.27;36.11;38.71;;
67308;Laerm;57662;51.436;5.978;2023-06-19T00:38:40;38.11;35.72;48.78;;
67308;Laerm;57662;51.436;5.978;2023-06-19T00:38:50;37.04;35.68;40.01;;
67308;Laerm;57662;51.436;5.978;2023-06-19T00:39:01;37.38;35.60;39.38;;
67308;Laerm;57662;51.436;5.978;2023-06-19T00:39:12;37.99;36.29;43.43;;
67308;Laerm;57662;51.436;5.978;2023-06-19T00:39:23;37.62;36.13;39.83;;
67308;Laerm;57662;51.436;5.978;2023-06-19T00:39:35;37.04;35.62;38.51;;
67308;Laerm;57662;51.436;5.978;2023-06-19T00:39:45;36.99;35.63;38.52;;
67308;Laerm;57662;51.436;5.978;2023-06-19T00:39:56;37.11;35.88;38.35;;
67308;Laerm;57662;51.436;5.978;2023-06-19T00:40:07;36.71;35.08;38.60;;
67308;Laerm;57662;51.436;5.978;2023-06-19T00:40:25;36.66;35.07;40.61;;
67308;Laerm;57662;51.436;5.978;2023-06-19T00:40:36;37.21;35.75;38.67;;
67308;Laerm;57662;51.436;5.978;2023-06-19T00:40:49;36.98;35.34;38.56;;
67308;Laerm;57662;51.436;5.978;2023-06-19T00:40:59;37.22;35.80;39.02;;
67308;Laerm;57662;51.436;5.978;2023-06-19T00:41:09;37.45;35.99;39.70;;
67308;Laerm;57662;51.436;5.978;2023-06-19T00:41:20;37.96;36.47;40.39;;
67308;Laerm;57662;51.436;5.978;2023-06-19T00:41:31;37.90;36.36;40.40;;
67308;Laerm;57662;51.436;5.978;2023-06-19T00:41:42;37.75;35.83;39.67;;
67308;Laerm;57662;51.436;5.978;2023-06-19T00:41:53;37.85;36.42;40.13;;
67308;Laerm;57662;51.436;5.978;2023-06-19T00:42:04;37.62;35.82;41.07;;
67308;Laerm;57662;51.436;5.978;2023-06-19T00:42:14;37.50;35.85;39.39;;
67308;Laerm;57662;51.436;5.978;2023-06-19T00:42:25;37.95;36.18;40.10;;
67308;Laerm;57662;51.436;5.978;2023-06-19T00:42:35;36.99;35.72;38.29;;
67308;Laerm;57662;51.436;5.978;2023-06-19T00:42:46;36.94;35.27;38.69;;
67308;Laerm;57662;51.436;5.978;2023-06-19T00:42:56;36.70;35.41;38.59;;
67308;Laerm;57662;51.436;5.978;2023-06-19T00:43:07;37.04;35.87;40.69;;
67308;Laerm;57662;51.436;5.978;2023-06-19T00:43:17;36.89;35.54;38.83;;
67308;Laerm;57662;51.436;5.978;2023-06-19T00:43:28;37.74;36.65;39.55;;
67308;Laerm;57662;51.436;5.978;2023-06-19T00:43:39;40.02;37.69;43.66;;
67308;Laerm;57662;51.436;5.978;2023-06-19T00:43:52;39.78;37.53;41.71;;
67308;Laerm;57662;51.436;5.978;2023-06-19T00:44:06;37.29;35.67;39.47;;
67308;Laerm;57662;51.436;5.978;2023-06-19T00:44:20;36.95;35.52;38.13;;
67308;Laerm;57662;51.436;5.978;2023-06-19T00:44:31;36.87;35.42;38.72;;
67308;Laerm;57662;51.436;5.978;2023-06-19T00:44:41;37.16;35.80;38.35;;
67308;Laerm;57662;51.436;5.978;2023-06-19T00:44:52;37.31;35.80;38.80;;
67308;Laerm;57662;51.436;5.978;2023-06-19T00:45:02;36.83;35.84;37.97;;
67308;Laerm;57662;51.436;5.978;2023-06-19T00:45:12;36.97;35.59;38.44;;
67308;Laerm;57662;51.436;5.978;2023-06-19T00:45:23;36.66;35.19;37.75;;
67308;Laerm;57662;51.436;5.978;2023-06-19T00:45:35;36.64;35.30;37.81;;
67308;Laerm;57662;51.436;5.978;2023-06-19T00:45:46;37.40;35.27;42.14;;
67308;Laerm;57662;51.436;5.978;2023-06-19T00:45:57;37.04;35.71;38.49;;
67308;Laerm;57662;51.436;5.978;2023-06-19T00:46:08;37.25;35.93;38.63;;
67308;Laerm;57662;51.436;5.978;2023-06-19T00:46:19;37.42;36.02;39.00;;
67308;Laerm;57662;51.436;5.978;2023-06-19T00:46:29;37.18;35.97;38.71;;
67308;Laerm;57662;51.436;5.978;2023-06-19T00:46:40;37.15;35.89;38.58;;
67308;Laerm;57662;51.436;5.978;2023-06-19T00:46:52;36.81;35.56;38.26;;
67308;Laerm;57662;51.436;5.978;2023-06-19T00:47:05;36.52;35.16;37.90;;
67308;Laerm;57662;51.436;5.978;2023-06-19T00:47:16;37.15;35.78;38.43;;
67308;Laerm;57662;51.436;5.978;2023-06-19T00:47:27;37.52;36.26;38.84;;
67308;Laerm;57662;51.436;5.978;2023-06-19T00:47:37;37.16;35.94;38.48;;
67308;Laerm;57662;51.436;5.978;2023-06-19T00:47:47;37.14;35.80;38.65;;
67308;Laerm;57662;51.436;5.978;2023-06-19T00:47:58;37.23;35.37;38.28;;
67308;Laerm;57662;51.436;5.978;2023-06-19T00:48:09;37.30;35.67;38.77;;
67308;Laerm;57662;51.436;5.978;2023-06-19T00:48:20;37.25;35.75;38.59;;
67308;Laerm;57662;51.436;5.978;2023-06-19T00:48:31;37.46;36.12;42.04;;
67308;Laerm;57662;51.436;5.978;2023-06-19T00:48:42;36.57;35.25;37.77;;
67308;Laerm;57662;51.436;5.978;2023-06-19T00:48:53;36.70;35.38;37.88;;
67308;Laerm;57662;51.436;5.978;2023-06-19T00:49:03;36.64;35.30;38.07;;
67308;Laerm;57662;51.436;5.978;2023-06-19T00:49:14;37.50;36.28;39.20;;
67308;Laerm;57662;51.436;5.978;2023-06-19T00:49:25;37.39;35.77;39.05;;
67308;Laerm;57662;51.436;5.978;2023-06-19T00:49:35;36.89;35.56;38.24;;
67308;Laerm;57662;51.436;5.978;2023-06-19T00:49:46;36.59;35.25;37.87;;
67308;Laerm;57662;51.436;5.978;2023-06-19T00:49:56;36.85;35.28;38.15;;
67308;Laerm;57662;51.436;5.978;2023-06-19T00:50:07;36.86;35.42;38.76;;
67308;Laerm;57662;51.436;5.978;2023-06-19T00:50:17;36.78;35.64;37.91;;
67308;Laerm;57662;51.436;5.978;2023-06-19T00:50:28;36.77;35.39;39.20;;
67308;Laerm;57662;51.436;5.978;2023-06-19T00:50:42;37.35;35.55;38.69;;
67308;Laerm;57662;51.436;5.978;2023-06-19T00:50:52;37.31;35.88;38.82;;
67308;Laerm;57662;51.436;5.978;2023-06-19T00:51:02;37.22;35.85;38.49;;
67308;Laerm;57662;51.436;5.978;2023-06-19T00:51:13;37.24;35.32;42.83;;
67308;Laerm;57662;51.436;5.978;2023-06-19T00:51:23;36.99;35.56;38.49;;
67308;Laerm;57662;51.436;5.978;2023-06-19T00:51:34;37.02;35.46;40.82;;
67308;Laerm;57662;51.436;5.978;2023-06-19T00:51:44;37.26;35.97;38.69;;
67308;Laerm;57662;51.436;5.978;2023-06-19T00:51:55;37.07;35.77;38.31;;
67308;Laerm;57662;51.436;5.978;2023-06-19T00:52:06;36.86;35.70;38.51;;
67308;Laerm;57662;51.436;5.978;2023-06-19T00:52:17;37.84;36.54;39.47;;
67308;Laerm;57662;51.436;5.978;2023-06-19T00:52:28;38.19;36.59;39.94;;
67308;Laerm;57662;51.436;5.978;2023-06-19T00:52:38;37.81;36.12;39.68;;
67308;Laerm;57662;51.436;5.978;2023-06-19T00:52:49;37.46;35.94;39.56;;
67308;Laerm;57662;51.436;5.978;2023-06-19T00:53:00;37.49;35.60;39.80;;
67308;Laerm;57662;51.436;5.978;2023-06-19T00:53:13;37.37;35.50;38.68;;
67308;Laerm;57662;51.436;5.978;2023-06-19T00:53:24;37.81;36.36;39.11;;
67308;Laerm;57662;51.436;5.978;2023-06-19T00:53:35;37.88;36.15;40.10;;
67308;Laerm;57662;51.436;5.978;2023-06-19T00:53:45;37.34;35.67;39.72;;
67308;Laerm;57662;51.436;5.978;2023-06-19T00:53:56;37.29;35.52;41.68;;
67308;Laerm;57662;51.436;5.978;2023-06-19T00:54:06;36.74;35.17;38.43;;
67308;Laerm;57662;51.436;5.978;2023-06-19T00:54:17;36.90;35.41;38.60;;
67308;Laerm;57662;51.436;5.978;2023-06-19T00:54:28;37.16;35.74;38.62;;
67308;Laerm;57662;51.436;5.978;2023-06-19T00:54:40;37.71;36.13;39.11;;
67308;Laerm;57662;51.436;5.978;2023-06-19T00:54:50;36.95;35.49;39.11;;
67308;Laerm;57662;51.436;5.978;2023-06-19T00:55:01;37.03;35.91;38.31;;
67308;Laerm;57662;51.436;5.978;2023-06-19T00:55:12;36.95;35.52;38.85;;
67308;Laerm;57662;51.436;5.978;2023-06-19T00:55:23;36.46;35.18;37.60;;
67308;Laerm;57662;51.436;5.978;2023-06-19T00:55:35;37.57;35.52;44.27;;
67308;Laerm;57662;51.436;5.978;2023-06-19T00:55:47;38.08;36.54;40.53;;
67308;Laerm;57662;51.436;5.978;2023-06-19T00:55:58;37.87;36.46;39.40;;
67308;Laerm;57662;51.436;5.978;2023-06-19T00:56:09;37.48;35.86;40.63;;
67308;Laerm;57662;51.436;5.978;2023-06-19T00:56:19;37.51;36.16;38.79;;
67308;Laerm;57662;51.436;5.978;2023-06-19T00:56:30;37.54;36.25;38.58;;
67308;Laerm;57662;51.436;5.978;2023-06-19T00:56:41;37.73;36.37;43.07;;
67308;Laerm;57662;51.436;5.978;2023-06-19T00:56:51;37.75;35.90;39.73;;
67308;Laerm;57662;51.436;5.978;2023-06-19T00:57:02;37.62;35.93;39.68;;
67308;Laerm;57662;51.436;5.978;2023-06-19T00:57:13;37.40;36.16;38.66;;
67308;Laerm;57662;51.436;5.978;2023-06-19T00:57:23;37.23;35.93;38.62;;
67308;Laerm;57662;51.436;5.978;2023-06-19T00:57:34;37.45;36.34;39.00;;
67308;Laerm;57662;51.436;5.978;2023-06-19T00:57:44;37.21;35.88;38.33;;
67308;Laerm;57662;51.436;5.978;2023-06-19T00:57:55;37.53;36.07;38.83;;
67308;Laerm;57662;51.436;5.978;2023-06-19T00:58:05;37.46;36.13;39.27;;
67308;Laerm;57662;51.436;5.978;2023-06-19T00:58:21;37.05;35.90;38.41;;
67308;Laerm;57662;51.436;5.978;2023-06-19T00:58:31;37.74;36.12;39.83;;
67308;Laerm;57662;51.436;5.978;2023-06-19T00:58:42;37.65;36.32;39.39;;
67308;Laerm;57662;51.436;5.978;2023-06-19T00:58:56;38.21;36.64;39.95;;
67308;Laerm;57662;51.436;5.978;2023-06-19T00:59:19;38.27;36.65;40.27;;
67308;Laerm;57662;51.436;5.978;2023-06-19T00:59:29;38.91;36.37;49.86;;
67308;Laerm;57662;51.436;5.978;2023-06-19T00:59:40;37.62;36.27;38.88;;
67308;Laerm;57662;51.436;5.978;2023-06-19T00:59:51;37.28;35.65;38.61;;
67308;Laerm;57662;51.436;5.978;2023-06-19T01:00:08;39.63;36.21;51.16;;
67308;Laerm;57662;51.436;5.978;2023-06-19T01:00:21;38.89;36.31;49.51;;
67308;Laerm;57662;51.436;5.978;2023-06-19T01:00:32;38.38;36.73;43.72;;
67308;Laerm;57662;51.436;5.978;2023-06-19T01:00:42;37.69;36.04;39.49;;
67308;Laerm;57662;51.436;5.978;2023-06-19T01:00:52;37.31;36.08;38.54;;
67308;Laerm;57662;51.436;5.978;2023-06-19T01:01:03;37.49;35.91;39.47;;
67308;Laerm;57662;51.436;5.978;2023-06-19T01:01:14;38.02;36.28;39.96;;
67308;Laerm;57662;51.436;5.978;2023-06-19T01:01:25;37.95;35.86;40.33;;
67308;Laerm;57662;51.436;5.978;2023-06-19T01:01:36;37.85;36.44;39.62;;
67308;Laerm;57662;51.436;5.978;2023-06-19T01:01:46;37.83;36.17;39.10;;